Woodhaven, Michigan
Current Conditions -  °F | °C
As of 8:34 PM on Friday 28 Nov 2014 (Local Time) from KONZ Reporting Station
Overcast Overcast  
Wind Chill: -7°   Ceiling: 7500
Heat Index: -1°   Visibility: 10mi
Dew Point: -4°   Wind: 13mph
Humidity: 80%   Direction: 160°SSE
Pressure: 30.12"   Gusts: NA
Location:  42.14°N, 83.24°W
Report Text: KONZ 290134Z AUTO 16011KT 10SM OVC075 M01/M04 A3012 RMK AO2
Loading
Personal Weather Stations






























Interactive Weather Map New forecast layout! Learn more

10-Day Weather Forecast

Advertisements
Track Severe Weather on mobile